Terminal Aerodrome Forecast
Issued by NWS Green Bay, WI

Home | Current Version | Previous Version | Graphics & Text | Print | Product List | Glossary On
Versions: 1 2 3 4 5 6 7 8 9 10 11 12 13 14 15 16 17 18 19 20 21 22 23 24 25 26 27 28 29 30 31 32 33 34 35 36
223
FTUS43 KGRB 162210 AAB
TAFGRB
TAF AMD
KGRB 162210Z 1622/1718 07005KT 5SM -FZRA BR OVC025
      TEMPO 1622/1623 3SM -RA BR SCT025 OVC060
     FM170400 05008KT 1 1/2SM -FZRAPL BR OVC005
     FM170800 03009KT 1 1/2SM -FZRA BR OVC004
     FM171500 01009KT 1 1/2SM -FZRA BR OVC003=

USA.gov is the U.S. government's official web portal to all federal, state and local government web resources and services.